Time;durP1;ratioP1;P1;durP2;ratioP2;P2;SDS_P1;SDS_P2;PMS_P1;PMS_P2;Temp;Humidity;BMP_temperature;BMP_pressure;BME280_temperature;BME280_humidity;BME280_pressure;Samples;Min_cycle;Max_cycle;Signal;HPM_P1;HPM_P2
2022/04/02 00:00:17;;;;;;;0.10;0.10;;;1.70;1.00;;;;;;5077881;28;20040;-70
2022/04/02 00:02:44;;;;;;;0.20;0.20;;;1.70;1.00;;;;;;5077992;28;20063;-70
2022/04/02 00:05:10;;;;;;;0.00;0.00;;;1.70;1.00;;;;;;5078271;28;20460;-70
2022/04/02 00:07:37;;;;;;;0.30;0.30;;;1.80;1.00;;;;;;5077484;28;20035;-70
2022/04/02 00:10:05;;;;;;;0.10;0.10;;;1.80;1.00;;;;;;5077739;28;20071;-70
2022/04/02 00:12:32;;;;;;;0.10;0.10;;;1.90;1.00;;;;;;5078214;28;20079;-70
2022/04/02 00:14:57;;;;;;;0.00;0.00;;;1.80;1.00;;;;;;5077937;28;20064;-70
2022/04/02 00:17:24;;;;;;;0.20;0.20;;;1.80;1.00;;;;;;5077348;28;20036;-70
2022/04/02 00:19:50;;;;;;;0.10;0.10;;;1.90;1.00;;;;;;5078057;28;20048;-70
2022/04/02 00:22:16;;;;;;;0.08;0.08;;;1.80;1.00;;;;;;5077896;28;20518;-70
2022/04/02 00:24:42;;;;;;;0.00;0.00;;;1.70;1.00;;;;;;5077508;28;20505;-70
2022/04/02 00:27:09;;;;;;;0.00;0.00;;;1.70;1.00;;;;;;5077890;28;20043;-70
2022/04/02 00:29:38;;;;;;;1.00;0.80;;;1.70;1.00;;;;;;5077600;28;20375;-70
2022/04/02 00:32:07;;;;;;;0.10;0.10;;;1.70;1.00;;;;;;5077604;28;20052;-70
2022/04/02 00:34:33;;;;;;;0.20;0.20;;;1.70;1.00;;;;;;5077215;28;20079;-70
2022/04/02 00:36:59;;;;;;;0.20;0.20;;;1.80;1.00;;;;;;5077641;28;20371;-70
2022/04/02 00:39:25;;;;;;;0.15;0.15;;;1.80;1.00;;;;;;5077487;28;20493;-70
2022/04/02 00:41:51;;;;;;;0.08;0.08;;;1.70;1.00;;;;;;5077495;28;20041;-70
2022/04/02 00:44:17;;;;;;;0.10;0.10;;;1.70;1.00;;;;;;5077309;28;20037;-70
2022/04/02 00:46:44;;;;;;;0.10;0.10;;;1.60;1.00;;;;;;5077376;28;20067;-70
2022/04/02 00:49:13;;;;;;;0.55;0.55;;;1.50;1.00;;;;;;5077013;28;20036;-70
2022/04/02 00:51:42;;;;;;;0.43;0.43;;;1.50;1.00;;;;;;5077044;28;20048;-70
2022/04/02 00:54:19;;;;;;;0.10;0.10;;;1.50;1.00;;;;;;5077021;28;20040;-70
2022/04/02 00:56:46;;;;;;;0.73;0.73;;;1.50;1.00;;;;;;5077474;28;20101;-70
2022/04/02 00:59:12;;;;;;;0.50;0.50;;;1.40;1.00;;;;;;5076919;28;20048;-70
2022/04/02 01:01:38;;;;;;;0.10;0.10;;;1.40;1.00;;;;;;5077461;28;20086;-70
2022/04/02 01:04:06;;;;;;;0.10;0.10;;;1.50;1.00;;;;;;5077380;28;20051;-70
2022/04/02 01:06:33;;;;;;;0.17;0.17;;;1.30;1.00;;;;;;5077278;28;20032;-70
2022/04/02 01:09:00;;;;;;;0.00;0.00;;;1.40;1.00;;;;;;5076556;28;20120;-70
2022/04/02 01:11:41;;;;;;;0.22;0.22;;;1.30;1.00;;;;;;5076837;28;20044;-69
2022/04/02 01:14:07;;;;;;;0.20;0.20;;;1.30;1.00;;;;;;5076355;28;20477;-70
2022/04/02 01:16:34;;;;;;;0.10;0.10;;;1.40;1.00;;;;;;5077315;28;20123;-70
2022/04/02 01:19:01;;;;;;;0.10;0.10;;;1.40;1.00;;;;;;5076756;28;20127;-70
2022/04/02 01:21:28;;;;;;;0.88;0.65;;;1.40;1.00;;;;;;5076374;28;20040;-70
2022/04/02 01:23:55;;;;;;;0.15;0.15;;;1.50;1.00;;;;;;5076120;28;20052;-70
2022/04/02 01:26:22;;;;;;;0.10;0.10;;;1.40;1.00;;;;;;5076227;28;20039;-70
2022/04/02 01:28:53;;;;;;;0.10;0.10;;;1.40;1.00;;;;;;5076297;28;20392;-70
2022/04/02 01:31:21;;;;;;;0.68;0.68;;;1.30;1.00;;;;;;5075563;28;20066;-70
2022/04/02 01:33:50;;;;;;;0.10;0.10;;;1.30;1.00;;;;;;5075569;28;20123;-70
2022/04/02 01:36:17;;;;;;;0.10;0.10;;;1.30;1.00;;;;;;5076090;28;20487;-70
2022/04/02 01:38:44;;;;;;;0.10;0.10;;;1.30;1.00;;;;;;5075894;28;20044;-70
2022/04/02 01:41:10;;;;;;;0.30;0.30;;;1.30;1.00;;;;;;5076010;28;20051;-70
2022/04/02 01:43:36;;;;;;;0.88;0.88;;;1.30;1.00;;;;;;5075523;28;20033;-70
2022/04/02 01:46:03;;;;;;;0.00;0.00;;;1.30;1.00;;;;;;5075947;28;20050;-70
2022/04/02 01:48:30;;;;;;;0.20;0.20;;;1.30;1.00;;;;;;5075872;28;20043;-70
2022/04/02 01:50:56;;;;;;;0.00;0.00;;;1.30;1.00;;;;;;5076037;28;20045;-70
2022/04/02 01:53:24;;;;;;;0.00;0.00;;;1.30;1.00;;;;;;5075440;28;20495;-70
2022/04/02 01:55:50;;;;;;;0.20;0.20;;;1.30;1.00;;;;;;5075441;28;20040;-70
2022/04/02 01:58:17;;;;;;;0.10;0.10;;;1.30;1.00;;;;;;5075663;28;20043;-70
2022/04/02 02:00:44;;;;;;;0.20;0.20;;;1.30;1.00;;;;;;5075592;28;20121;-70
2022/04/02 02:03:11;;;;;;;0.00;0.00;;;1.30;1.00;;;;;;5075778;28;20132;-70
2022/04/02 02:05:37;;;;;;;0.00;0.00;;;1.30;1.00;;;;;;5075137;28;20033;-70
2022/04/02 02:08:04;;;;;;;0.20;0.20;;;1.30;1.00;;;;;;5075329;28;20124;-70
2022/04/02 02:10:31;;;;;;;0.00;0.00;;;1.30;1.00;;;;;;5075119;28;20043;-70
2022/04/02 02:12:56;;;;;;;0.10;0.10;;;1.30;1.00;;;;;;5074690;28;20114;-70
2022/04/02 02:15:23;;;;;;;0.25;0.25;;;1.40;1.00;;;;;;5075097;28;20036;-70
2022/04/02 02:17:50;;;;;;;0.17;0.17;;;1.30;1.00;;;;;;5075290;28;20048;-70
2022/04/02 02:20:18;;;;;;;0.10;0.10;;;1.40;1.00;;;;;;5075212;28;20067;-70
2022/04/02 02:22:46;;;;;;;0.20;0.20;;;1.40;1.00;;;;;;5074976;28;20041;-70
2022/04/02 02:25:14;;;;;;;0.20;0.20;;;1.40;1.00;;;;;;5075566;28;20110;-70
2022/04/02 02:27:42;;;;;;;0.10;0.10;;;1.40;1.00;;;;;;5075404;28;20036;-70
2022/04/02 02:30:10;;;;;;;0.10;0.10;;;1.40;1.00;;;;;;5075691;28;20098;-70
2022/04/02 02:32:39;;;;;;;0.32;0.32;;;1.40;1.00;;;;;;5075547;28;20075;-70
2022/04/02 02:38:09;;;;;;;0.45;0.45;;;1.40;1.00;;;;;;5074842;28;20162;-70
2022/04/02 02:40:37;;;;;;;0.57;0.57;;;1.30;1.00;;;;;;5075236;28;20028;-70
2022/04/02 02:43:04;;;;;;;0.00;0.00;;;1.20;1.00;;;;;;5075376;28;20047;-70
2022/04/02 02:45:33;;;;;;;0.43;0.35;;;1.10;1.00;;;;;;5075142;28;20555;-70
2022/04/02 02:48:01;;;;;;;1.90;0.38;;;1.10;1.00;;;;;;5074823;28;20498;-70
2022/04/02 02:50:27;;;;;;;0.10;0.10;;;1.10;1.00;;;;;;5075277;28;20044;-70
2022/04/02 02:52:53;;;;;;;1.17;0.20;;;1.10;1.00;;;;;;5074878;28;20495;-70
2022/04/02 02:55:18;;;;;;;0.10;0.10;;;1.00;1.00;;;;;;5074960;28;20119;-71
2022/04/02 02:57:45;;;;;;;0.15;0.15;;;1.10;1.00;;;;;;5074908;28;20503;-71
2022/04/02 03:00:12;;;;;;;0.00;0.00;;;1.10;1.00;;;;;;5075250;28;20060;-71
2022/04/02 03:02:39;;;;;;;0.10;0.10;;;1.00;1.00;;;;;;5074743;28;20041;-71
2022/04/02 03:05:14;;;;;;;0.10;0.10;;;1.00;1.00;;;;;;5074808;28;20036;-71
2022/04/02 03:07:48;;;;;;;0.13;0.13;;;1.00;1.00;;;;;;5074645;28;20036;-71
2022/04/02 03:10:16;;;;;;;0.20;0.20;;;1.10;1.00;;;;;;5075302;28;20041;-70
2022/04/02 03:12:42;;;;;;;0.10;0.10;;;1.10;1.00;;;;;;5075254;28;20052;-70
2022/04/02 03:15:08;;;;;;;5.47;1.02;;;1.10;1.00;;;;;;5075351;28;20115;-70
2022/04/02 03:17:34;;;;;;;0.00;0.00;;;1.10;1.00;;;;;;5074387;28;20044;-71
2022/04/02 03:20:00;;;;;;;0.10;0.10;;;1.00;1.00;;;;;;5074784;28;20037;-71
2022/04/02 03:22:27;;;;;;;0.10;0.10;;;1.00;1.00;;;;;;5074980;28;20079;-71
2022/04/02 03:24:54;;;;;;;0.05;0.05;;;1.10;1.00;;;;;;5081868;28;20075;-70
2022/04/02 03:27:20;;;;;;;0.10;0.10;;;1.20;1.00;;;;;;5081491;28;20063;-70
2022/04/02 03:29:46;;;;;;;0.10;0.10;;;1.10;1.00;;;;;;5081055;28;20075;-70
2022/04/02 03:32:11;;;;;;;0.30;0.30;;;1.00;1.00;;;;;;5080679;28;20077;-70
2022/04/02 03:34:37;;;;;;;0.10;0.10;;;1.10;1.00;;;;;;5080705;28;20127;-70
2022/04/02 03:37:05;;;;;;;0.10;0.10;;;1.10;1.00;;;;;;5080770;28;20521;-70
2022/04/02 03:39:30;;;;;;;0.10;0.10;;;1.20;1.00;;;;;;5080891;28;20571;-70
2022/04/02 03:41:56;;;;;;;1.88;0.57;;;1.10;1.00;;;;;;5080899;28;20090;-70
2022/04/02 03:44:22;;;;;;;0.10;0.10;;;1.10;1.00;;;;;;5081153;28;20071;-70
2022/04/02 03:49:32;;;;;;;0.88;0.88;;;1.10;1.00;;;;;;5080636;28;20414;-70
2022/04/02 03:51:58;;;;;;;0.00;0.00;;;1.10;1.00;;;;;;5080601;28;20040;-70
2022/04/02 03:54:24;;;;;;;0.40;0.40;;;1.10;1.00;;;;;;5081076;28;20101;-70
2022/04/02 03:56:49;;;;;;;0.10;0.10;;;0.90;1.00;;;;;;5080781;28;20047;-70
2022/04/02 03:59:16;;;;;;;0.30;0.30;;;0.80;1.00;;;;;;5080479;28;20042;-70
2022/04/02 04:01:42;;;;;;;0.20;0.20;;;0.90;1.00;;;;;;5080367;28;20047;-70
2022/04/02 04:04:08;;;;;;;0.20;0.20;;;0.90;1.00;;;;;;5080551;28;20032;-71
2022/04/02 04:06:34;;;;;;;0.25;0.25;;;0.90;1.00;;;;;;5080422;28;20047;-71
2022/04/02 04:09:00;;;;;;;0.38;0.38;;;0.80;1.00;;;;;;5080444;28;20044;-71
2022/04/02 04:11:27;;;;;;;0.52;0.52;;;0.80;1.00;;;;;;5080634;28;20048;-71
2022/04/02 04:13:59;;;;;;;9.32;0.68;;;0.80;1.00;;;;;;5080022;28;20040;-71
2022/04/02 04:16:25;;;;;;;0.03;0.03;;;0.70;1.00;;;;;;5080975;28;20044;-71
2022/04/02 04:18:51;;;;;;;0.00;0.00;;;0.70;1.00;;;;;;5080519;28;20078;-71
2022/04/02 04:21:17;;;;;;;0.00;0.00;;;0.70;1.00;;;;;;5080536;28;20080;-71
2022/04/02 04:23:44;;;;;;;0.10;0.10;;;0.70;1.00;;;;;;5080636;28;20059;-71
2022/04/02 04:26:11;;;;;;;0.10;0.10;;;0.70;99.90;;;;;;5080860;28;20037;-71
2022/04/02 04:28:37;;;;;;;0.20;0.20;;;0.70;1.00;;;;;;5080535;28;20047;-72
2022/04/02 04:31:04;;;;;;;0.00;0.00;;;0.70;1.00;;;;;;5080998;28;20048;-72
2022/04/02 04:33:31;;;;;;;0.00;0.00;;;0.60;1.00;;;;;;5080935;28;20070;-72
2022/04/02 04:35:57;;;;;;;0.40;0.40;;;0.60;1.00;;;;;;5076699;28;20352;-72
2022/04/02 04:38:23;;;;;;;0.00;0.00;;;0.60;1.00;;;;;;5077100;28;20067;-72
2022/04/02 04:40:49;;;;;;;0.20;0.20;;;0.70;1.00;;;;;;5077524;28;20127;-72
2022/04/02 04:43:15;;;;;;;0.10;0.10;;;0.70;1.00;;;;;;5077462;28;20060;-72
2022/04/02 04:45:41;;;;;;;0.30;0.30;;;0.80;1.00;;;;;;5077341;28;20048;-72
2022/04/02 04:48:07;;;;;;;0.22;0.22;;;0.90;1.00;;;;;;5077003;28;20039;-72
2022/04/02 04:50:35;;;;;;;0.22;0.22;;;0.90;1.00;;;;;;5077409;28;20037;-72
2022/04/02 04:53:02;;;;;;;0.08;0.08;;;0.90;1.00;;;;;;5077503;28;20037;-72
2022/04/02 04:55:28;;;;;;;0.10;0.10;;;0.80;1.00;;;;;;5076960;28;20572;-71
2022/04/02 04:57:54;;;;;;;0.10;0.10;;;0.70;1.00;;;;;;5077161;28;20051;-71
2022/04/02 05:00:20;;;;;;;0.00;0.00;;;0.70;1.00;;;;;;5076813;28;20028;-71
2022/04/02 05:02:47;;;;;;;0.20;0.20;;;0.60;1.00;;;;;;5076535;28;20479;-72
2022/04/02 05:05:13;;;;;;;0.13;0.13;;;0.60;1.00;;;;;;5075355;28;20036;-72
2022/04/02 05:07:42;;;;;;;0.20;0.20;;;0.70;1.00;;;;;;5075415;28;20033;-72
2022/04/02 05:10:10;;;;;;;0.40;0.40;;;0.80;1.00;;;;;;5075419;28;20039;-72
2022/04/02 05:12:37;;;;;;;0.28;0.28;;;0.80;1.00;;;;;;5076459;28;20051;-72
2022/04/02 05:15:05;;;;;;;0.00;0.00;;;0.70;1.00;;;;;;5076905;28;20093;-72
2022/04/02 05:17:33;;;;;;;0.10;0.10;;;0.80;1.00;;;;;;5076432;28;20036;-72
2022/04/02 05:19:59;;;;;;;0.00;0.00;;;0.90;1.00;;;;;;5076493;28;20491;-72
2022/04/02 05:22:25;;;;;;;0.10;0.10;;;0.90;1.00;;;;;;5077043;28;20036;-72
2022/04/02 05:24:51;;;;;;;0.10;0.10;;;0.90;1.00;;;;;;5077068;28;20135;-72
2022/04/02 05:27:17;;;;;;;0.10;0.10;;;0.90;1.00;;;;;;5076368;28;20117;-72
2022/04/02 05:29:43;;;;;;;0.10;0.10;;;0.90;1.00;;;;;;5076281;28;20051;-72
2022/04/02 05:32:10;;;;;;;0.10;0.10;;;0.90;1.00;;;;;;5076932;28;20048;-72
2022/04/02 05:34:36;;;;;;;0.08;0.05;;;0.80;1.00;;;;;;5076065;28;20036;-72
2022/04/02 05:37:02;;;;;;;0.10;0.10;;;0.80;1.00;;;;;;5075967;28;20037;-72
2022/04/02 05:39:28;;;;;;;0.60;0.52;;;0.70;1.00;;;;;;5076625;28;20036;-72
2022/04/02 05:41:54;;;;;;;0.17;0.17;;;0.70;1.00;;;;;;5076944;28;20040;-72
2022/04/02 05:44:19;;;;;;;0.30;0.30;;;0.70;1.00;;;;;;5076852;28;20040;-72
2022/04/02 05:46:45;;;;;;;0.20;0.20;;;0.70;1.00;;;;;;5075394;28;20361;-72
2022/04/02 05:49:11;;;;;;;0.03;0.03;;;0.70;1.00;;;;;;5076186;28;20061;-72
2022/04/02 05:51:38;;;;;;;0.65;0.65;;;0.80;1.00;;;;;;5075978;28;20048;-72
2022/04/02 05:54:04;;;;;;;1.33;1.17;;;0.80;1.00;;;;;;5076184;28;20460;-72
2022/04/02 05:56:30;;;;;;;0.08;0.08;;;0.80;1.00;;;;;;5075782;28;20170;-72
2022/04/02 05:58:56;;;;;;;0.10;0.10;;;0.80;1.00;;;;;;5075910;28;20036;-72
2022/04/02 06:01:22;;;;;;;0.25;0.25;;;0.80;1.00;;;;;;5076228;28;20098;-72
2022/04/02 06:03:48;;;;;;;0.20;0.20;;;0.70;1.00;;;;;;5058090;28;20033;-72
2022/04/02 06:06:14;;;;;;;0.10;0.10;;;0.70;1.00;;;;;;5075575;28;20043;-72
2022/04/02 06:08:40;;;;;;;0.10;0.10;;;0.70;1.00;;;;;;5075550;28;20032;-72
2022/04/02 06:11:06;;;;;;;0.38;0.38;;;0.80;1.00;;;;;;5075405;28;20048;-72
2022/04/02 06:13:32;;;;;;;0.00;0.00;;;0.90;1.00;;;;;;5075660;28;20394;-72
2022/04/02 06:15:58;;;;;;;0.10;0.10;;;0.80;1.00;;;;;;5075676;28;20040;-72
2022/04/02 06:18:24;;;;;;;0.40;0.32;;;0.70;1.00;;;;;;5075315;28;20040;-73
2022/04/02 06:20:51;;;;;;;0.03;0.03;;;0.80;1.00;;;;;;5075558;28;20051;-72
2022/04/02 06:23:17;;;;;;;1.98;1.30;;;0.80;1.00;;;;;;5075374;28;20072;-73
2022/04/02 06:25:44;;;;;;;0.05;0.05;;;0.70;1.00;;;;;;5075250;28;20487;-72
2022/04/02 06:28:09;;;;;;;0.10;0.10;;;0.90;1.00;;;;;;5075161;28;20106;-72
2022/04/02 06:30:35;;;;;;;0.08;0.08;;;0.80;1.00;;;;;;5074739;28;20487;-72
2022/04/02 06:33:01;;;;;;;0.00;0.00;;;0.70;1.00;;;;;;5075231;28;20510;-73
2022/04/02 06:35:28;;;;;;;0.10;0.10;;;0.60;1.00;;;;;;5075019;28;20051;-72
2022/04/02 06:37:55;;;;;;;0.20;0.20;;;0.70;1.00;;;;;;5074495;28;20048;-73
2022/04/02 06:40:22;;;;;;;0.15;0.15;;;0.70;1.00;;;;;;5069860;28;20068;-73
2022/04/02 06:42:48;;;;;;;0.00;0.00;;;0.80;1.00;;;;;;5075058;28;20045;-72
2022/04/02 06:45:14;;;;;;;0.30;0.30;;;0.90;1.00;;;;;;5058369;28;20040;-73
2022/04/02 06:47:40;;;;;;;0.00;0.00;;;0.90;1.00;;;;;;5054992;28;20064;-73
2022/04/02 06:50:09;;;;;;;0.10;0.10;;;0.90;1.00;;;;;;5054778;28;20091;-72
2022/04/02 06:52:35;;;;;;;0.00;0.00;;;1.00;1.00;;;;;;5058917;28;20048;-73
2022/04/02 06:55:01;;;;;;;0.00;0.00;;;1.00;1.00;;;;;;5066060;28;20041;-73
2022/04/02 06:57:28;;;;;;;0.10;0.10;;;1.00;1.00;;;;;;5085096;28;20069;-73
2022/04/02 06:59:54;;;;;;;0.20;0.20;;;1.00;1.00;;;;;;5094450;28;20511;-73
2022/04/02 07:02:20;;;;;;;0.10;0.10;;;1.00;1.00;;;;;;5094454;28;20162;-73
2022/04/02 07:04:47;;;;;;;0.40;0.30;;;1.10;1.00;;;;;;5094085;28;20036;-73
2022/04/02 07:07:13;;;;;;;0.08;0.08;;;1.10;1.00;;;;;;5094554;28;20055;-72
2022/04/02 07:09:39;;;;;;;0.00;0.00;;;1.10;1.00;;;;;;5073323;28;20511;-73
2022/04/02 07:12:06;;;;;;;0.00;0.00;;;1.20;1.00;;;;;;5081006;28;20051;-73
2022/04/02 07:14:33;;;;;;;0.60;0.60;;;1.20;1.00;;;;;;5065588;28;20106;-72
2022/04/02 07:16:59;;;;;;;1.08;0.63;;;1.30;1.00;;;;;;5062381;28;20070;-73
2022/04/02 07:19:25;;;;;;;0.10;0.10;;;1.20;1.00;;;;;;5063454;28;20172;-73
2022/04/02 07:21:53;;;;;;;0.50;0.47;;;1.20;1.00;;;;;;5063683;28;20041;-73
2022/04/02 07:24:20;;;;;;;0.00;0.00;;;1.10;1.00;;;;;;5062473;28;20159;-73
2022/04/02 07:26:46;;;;;;;0.10;0.10;;;1.20;1.00;;;;;;5066933;28;20122;-73
2022/04/02 07:29:14;;;;;;;0.17;0.17;;;1.20;1.00;;;;;;5062880;28;20036;-73
2022/04/02 07:31:46;;;;;;;6.03;1.50;;;1.10;1.00;;;;;;5062356;28;20049;-72
2022/04/02 07:34:13;;;;;;;0.20;0.20;;;1.10;1.00;;;;;;5074590;28;20463;-73
2022/04/02 07:36:57;;;;;;;0.30;0.30;;;1.00;1.00;;;;;;5073623;28;20387;-74
2022/04/02 07:39:39;;;;;;;0.70;0.70;;;1.10;1.00;;;;;;5063754;28;20086;-70
2022/04/02 07:42:11;;;;;;;2.53;0.65;;;1.10;1.00;;;;;;5059016;28;20036;-72
2022/04/02 07:44:47;;;;;;;5.05;1.20;;;1.10;1.00;;;;;;5062567;28;20037;-71
2022/04/02 07:47:17;;;;;;;0.57;0.43;;;1.10;1.00;;;;;;5061367;28;20106;-71
2022/04/02 07:49:46;;;;;;;0.22;0.22;;;1.10;1.00;;;;;;5081948;28;20088;-71
2022/04/02 07:52:12;;;;;;;1.80;1.42;;;1.10;1.00;;;;;;5074520;28;20471;-71
2022/04/02 07:54:42;;;;;;;0.10;0.10;;;1.20;1.00;;;;;;5055334;28;20044;-71
2022/04/02 07:57:09;;;;;;;1.50;1.13;;;1.20;1.00;;;;;;5065743;28;20123;-71
2022/04/02 07:59:42;;;;;;;0.45;0.45;;;1.30;1.00;;;;;;5062617;28;20270;-71
2022/04/02 08:02:36;;;;;;;0.20;0.20;;;1.40;1.00;;;;;;5074345;28;20098;-71
2022/04/02 08:05:02;;;;;;;0.10;0.10;;;1.30;1.00;;;;;;5073603;28;20043;-73
2022/04/02 08:07:30;;;;;;;0.10;0.10;;;1.40;1.00;;;;;;5065076;28;20062;-71
2022/04/02 08:09:58;;;;;;;0.30;0.30;;;1.30;1.00;;;;;;5054758;28;20044;-71
2022/04/02 08:12:25;;;;;;;0.20;0.20;;;1.40;1.00;;;;;;5057936;28;20041;-71
2022/04/02 08:14:52;;;;;;;0.32;0.32;;;1.50;1.00;;;;;;5064202;28;20114;-71
2022/04/02 08:17:22;;;;;;;6.50;1.27;;;1.60;1.00;;;;;;5072598;28;20036;-72
2022/04/02 08:19:51;;;;;;;0.10;0.10;;;1.60;1.00;;;;;;5070371;28;20090;-70
2022/04/02 08:22:17;;;;;;;1.40;0.85;;;1.70;1.00;;;;;;5057448;28;20503;-72
2022/04/02 08:24:44;;;;;;;0.50;0.50;;;1.60;1.00;;;;;;5057131;28;20132;-70
2022/04/02 08:27:22;;;;;;;1.13;0.57;;;1.70;1.00;;;;;;5059371;28;20036;-70
2022/04/02 08:30:02;;;;;;;0.20;0.20;;;1.80;1.00;;;;;;5057407;28;20091;-70
2022/04/02 08:32:38;;;;;;;0.50;0.50;;;1.90;1.00;;;;;;5059608;28;20047;-69
2022/04/02 08:35:09;;;;;;;0.85;0.57;;;1.90;1.00;;;;;;5056709;28;20431;-70
2022/04/02 08:37:37;;;;;;;0.10;0.10;;;1.70;1.00;;;;;;5057091;28;20118;-69
2022/04/02 08:40:25;;;;;;;0.15;0.15;;;1.60;1.00;;;;;;5057148;28;20040;-70
2022/04/02 08:43:31;;;;;;;0.13;0.13;;;1.80;1.00;;;;;;5057357;28;20041;-70
2022/04/02 08:46:08;;;;;;;0.13;0.13;;;1.80;1.00;;;;;;5056990;28;20048;-70
2022/04/02 08:48:35;;;;;;;0.60;0.60;;;1.90;1.00;;;;;;5057098;28;20037;-71
2022/04/02 08:51:19;;;;;;;0.20;0.20;;;1.90;1.00;;;;;;5056673;28;20059;-70
2022/04/02 08:54:05;;;;;;;0.43;0.43;;;1.80;1.00;;;;;;5056663;28;20044;-69
2022/04/02 08:56:37;;;;;;;0.28;0.28;;;1.80;1.00;;;;;;5056714;28;20522;-71
2022/04/02 08:59:04;;;;;;;1.38;0.63;;;1.90;1.00;;;;;;5061302;28;20079;-80
2022/04/02 09:02:02;;;;;;;0.30;0.30;;;1.70;1.00;;;;;;5076523;28;20093;-71
2022/04/02 09:05:06;;;;;;;0.17;0.13;;;1.60;1.00;;;;;;5076499;28;20144;-72
2022/04/02 09:07:32;;;;;;;0.47;0.47;;;1.70;1.00;;;;;;5076181;28;20036;-72
2022/04/02 09:10:33;;;;;;;0.75;0.75;;;1.80;1.00;;;;;;5061870;28;20037;-71
2022/04/02 09:13:19;;;;;;;0.00;0.00;;;1.90;1.00;;;;;;5032592;28;20634;-66
2022/04/02 09:15:57;;;;;;;0.38;0.38;;;1.60;1.00;;;;;;5065913;28;20036;-70
2022/04/02 09:18:35;;;;;;;0.43;0.43;;;1.70;1.00;;;;;;5066099;28;20079;-69
2022/04/02 09:21:08;;;;;;;0.30;0.30;;;1.70;1.00;;;;;;5063548;28;20123;-69
2022/04/02 09:23:55;;;;;;;0.75;0.75;;;1.60;1.00;;;;;;5063961;28;20563;-69
2022/04/02 09:26:41;;;;;;;0.00;0.00;;;1.50;1.00;;;;;;5071443;28;20065;-69
2022/04/02 09:29:29;;;;;;;0.10;0.10;;;1.80;1.00;;;;;;5075991;28;20036;-69
2022/04/02 09:32:32;;;;;;;0.45;0.45;;;1.80;1.00;;;;;;5073934;28;20040;-70
2022/04/02 09:35:16;;;;;;;0.17;0.17;;;1.80;1.00;;;;;;5064580;28;20108;-69
2022/04/02 09:38:08;;;;;;;0.70;0.70;;;2.00;1.00;;;;;;5056813;28;20067;-69
2022/04/02 09:40:48;;;;;;;0.63;0.63;;;2.00;1.00;;;;;;5059027;28;20082;-68
2022/04/02 09:43:38;;;;;;;1.50;1.27;;;2.00;1.00;;;;;;5057499;28;20045;-68
2022/04/02 09:46:25;;;;;;;0.52;0.52;;;2.10;1.00;;;;;;5069990;28;20267;-68
2022/04/02 09:49:00;;;;;;;1.00;1.00;;;2.30;1.00;;;;;;5066718;28;20043;-68
2022/04/02 09:51:34;;;;;;;1.45;1.35;;;2.20;1.00;;;;;;5065060;28;20049;-68
2022/04/02 09:54:21;;;;;;;0.38;0.38;;;2.00;1.00;;;;;;5064421;28;20060;-68
2022/04/02 09:56:54;;;;;;;0.63;0.63;;;1.80;1.00;;;;;;5065136;28;20050;-68
2022/04/02 09:59:56;;;;;;;0.20;0.20;;;2.00;1.00;;;;;;5063764;28;20079;-68
2022/04/02 10:02:45;;;;;;;0.10;0.10;;;2.00;1.00;;;;;;5057296;28;20048;-68
2022/04/02 10:05:15;;;;;;;0.10;0.10;;;2.00;1.00;;;;;;5055600;28;20131;-68
2022/04/02 10:08:02;;;;;;;0.10;0.10;;;2.10;1.00;;;;;;5074005;28;20047;-68
2022/04/02 10:10:30;;;;;;;0.20;0.20;;;2.30;1.00;;;;;;5053937;28;20438;-68
2022/04/02 10:12:57;;;;;;;0.20;0.20;;;2.10;1.00;;;;;;5061836;28;20045;-68
2022/04/02 10:15:23;;;;;;;0.30;0.30;;;2.20;1.00;;;;;;5060841;28;20427;-69
2022/04/02 10:17:54;;;;;;;0.22;0.22;;;2.10;1.00;;;;;;5054380;28;20037;-69
2022/04/02 10:20:24;;;;;;;0.10;0.10;;;2.00;1.00;;;;;;5056064;28;20492;-69
2022/04/02 10:23:12;;;;;;;1.00;0.68;;;2.00;1.00;;;;;;5056865;28;20033;-69
2022/04/02 10:25:55;;;;;;;0.03;0.03;;;2.00;1.00;;;;;;5054709;28;20044;-69
2022/04/02 10:28:28;;;;;;;0.00;0.00;;;1.90;1.00;;;;;;5058395;28;20119;-69
2022/04/02 10:30:57;;;;;;;0.30;0.30;;;2.00;1.00;;;;;;5074714;28;20056;-69
2022/04/02 10:33:34;;;;;;;0.30;0.30;;;1.90;1.00;;;;;;5072155;28;20041;-69
2022/04/02 10:36:37;;;;;;;0.20;0.20;;;1.90;1.00;;;;;;5073195;28;20066;-69
2022/04/02 10:39:03;;;;;;;0.80;0.80;;;2.00;1.00;;;;;;5053917;28;20044;-71
2022/04/02 10:41:30;;;;;;;0.10;0.10;;;2.00;1.00;;;;;;5064773;28;20049;-69
2022/04/02 10:44:03;;;;;;;0.63;0.63;;;2.00;1.00;;;;;;5058000;28;20048;-69
2022/04/02 10:46:32;;;;;;;0.75;0.75;;;2.00;1.00;;;;;;5067975;28;20044;-69
2022/04/02 10:49:07;;;;;;;0.17;0.17;;;2.00;1.00;;;;;;5074466;28;20036;-69
2022/04/02 10:51:38;;;;;;;0.28;0.28;;;1.90;1.00;;;;;;5072556;28;20052;-69
2022/04/02 10:54:12;;;;;;;0.30;0.30;;;1.90;1.00;;;;;;5074265;28;20116;-69
2022/04/02 10:56:46;;;;;;;0.20;0.20;;;1.90;1.00;;;;;;5074376;28;20395;-69
2022/04/02 10:59:15;;;;;;;0.57;0.57;;;1.90;1.00;;;;;;5074343;28;20033;-69
2022/04/02 11:01:46;;;;;;;0.60;0.60;;;1.90;1.00;;;;;;5072425;28;20083;-69
2022/04/02 11:04:43;;;;;;;;;;;2.00;1.00;;;;;;5066658;28;20128;-69
2022/04/02 11:07:09;;;;;;;0.65;0.63;;;2.10;1.00;;;;;;5054691;28;19909;-69
2022/04/02 11:09:38;;;;;;;0.47;0.47;;;2.20;1.00;;;;;;5061681;28;20086;-69
2022/04/02 11:12:07;;;;;;;0.10;0.10;;;2.40;1.00;;;;;;5073757;28;20052;-69
2022/04/02 11:14:40;;;;;;;0.35;0.30;;;2.60;1.00;;;;;;5062663;28;20571;-69
2022/04/02 11:17:06;;;;;;;0.82;0.47;;;2.60;1.00;;;;;;5066213;28;20041;-69
2022/04/02 11:19:56;;;;;;;0.47;0.40;;;2.50;1.00;;;;;;5062417;28;20043;-69
2022/04/02 11:22:51;;;;;;;0.25;0.25;;;2.60;1.00;;;;;;5060348;28;20044;-67
2022/04/02 11:25:22;;;;;;;0.40;0.40;;;2.80;1.00;;;;;;5026200;28;20054;-69
2022/04/02 11:27:56;;;;;;;0.60;0.60;;;2.90;1.00;;;;;;5021249;28;20053;-69
2022/04/02 11:30:28;;;;;;;0.15;0.15;;;3.00;1.00;;;;;;5024369;28;20045;-69
2022/04/02 11:33:04;;;;;;;0.52;0.52;;;3.00;1.00;;;;;;5029110;28;20052;-69
2022/04/02 11:35:35;;;;;;;0.52;0.52;;;3.00;1.00;;;;;;5046564;28;20098;-68
2022/04/02 11:38:08;;;;;;;;;;;2.90;1.00;;;;;;5014011;28;20041;-69
2022/04/02 11:40:45;;;;;;;0.20;0.20;;;2.90;1.00;;;;;;5026897;28;19913;-69
2022/04/02 11:43:14;;;;;;;0.17;0.17;;;3.10;1.00;;;;;;5032356;28;20268;-69
2022/04/02 11:45:40;;;;;;;0.10;0.10;;;3.10;1.00;;;;;;5036202;28;20059;-68
2022/04/02 11:48:13;;;;;;;0.95;0.80;;;3.10;1.00;;;;;;5036557;28;20042;-68
2022/04/02 11:50:43;;;;;;;0.22;0.22;;;3.10;1.00;;;;;;5034180;28;20114;-68
2022/04/02 11:53:10;;;;;;;0.13;0.13;;;3.00;1.00;;;;;;5036255;28;20042;-68
2022/04/02 11:55:37;;;;;;;0.20;0.20;;;3.20;1.00;;;;;;5033417;28;20045;-68
2022/04/02 11:58:08;;;;;;;0.25;0.25;;;3.10;1.00;;;;;;5036471;28;20038;-68
2022/04/02 12:00:39;;;;;;;0.10;0.10;;;3.00;1.00;;;;;;5033823;28;20045;-68
2022/04/02 12:03:23;;;;;;;0.20;0.20;;;3.00;1.00;;;;;;5036258;28;20529;-67
2022/04/02 12:05:50;;;;;;;0.17;0.17;;;3.10;1.00;;;;;;5035688;28;20159;-68
2022/04/02 12:08:30;;;;;;;0.10;0.10;;;3.10;1.00;;;;;;5036175;28;20041;-68
2022/04/02 12:11:00;;;;;;;0.85;0.85;;;3.10;1.00;;;;;;5033607;28;20132;-68
2022/04/02 12:13:27;;;;;;;0.15;0.15;;;3.00;1.00;;;;;;5036110;28;20049;-68
2022/04/02 12:16:08;;;;;;;0.10;0.10;;;3.00;1.00;;;;;;5035501;28;20557;-68
2022/04/02 12:18:53;;;;;;;0.20;0.20;;;2.80;1.00;;;;;;5032695;28;20029;-67
2022/04/02 12:21:40;;;;;;;0.10;0.10;;;2.80;1.00;;;;;;5034596;28;20037;-68
2022/04/02 12:24:06;;;;;;;0.10;0.10;;;3.10;1.00;;;;;;5048036;28;20060;-68
2022/04/02 12:26:32;;;;;;;0.05;0.05;;;3.10;1.00;;;;;;5066425;28;20044;-68
2022/04/02 12:28:59;;;;;;;0.15;0.15;;;3.30;1.00;;;;;;5066194;28;20037;-68
2022/04/02 12:31:30;;;;;;;0.52;0.52;;;3.50;1.00;;;;;;5064355;28;20044;-68
2022/04/02 12:33:58;;;;;;;0.30;0.30;;;3.50;1.00;;;;;;5066060;28;20067;-68
2022/04/02 12:36:35;;;;;;;0.10;0.10;;;3.60;1.00;;;;;;5066869;28;20086;-68
2022/04/02 12:39:04;;;;;;;0.20;0.20;;;3.60;1.00;;;;;;5063129;28;20043;-69
2022/04/02 12:41:31;;;;;;;13.65;0.95;;;3.70;1.00;;;;;;5056663;28;20103;-69
2022/04/02 12:44:02;;;;;;;0.20;0.20;;;3.80;1.00;;;;;;5059136;28;20047;-68
2022/04/02 12:46:28;;;;;;;0.10;0.10;;;3.70;1.00;;;;;;5071088;28;20040;-68
2022/04/02 12:48:55;;;;;;;0.20;0.20;;;3.70;1.00;;;;;;5070268;28;20115;-67
2022/04/02 12:51:23;;;;;;;2.30;0.93;;;3.40;1.00;;;;;;5071724;28;20079;-67
2022/04/02 12:53:56;;;;;;;1.25;1.02;;;3.30;1.00;;;;;;5076532;28;20036;-68
2022/04/02 12:56:28;;;;;;;0.10;0.10;;;3.40;1.00;;;;;;5056532;28;20044;-68
2022/04/02 12:58:55;;;;;;;0.10;0.10;;;3.60;1.00;;;;;;5057859;28;20072;-69
2022/04/02 13:01:27;;;;;;;0.35;0.32;;;3.80;1.00;;;;;;5043337;28;20054;-67
2022/04/02 13:03:59;;;;;;;0.20;0.20;;;4.00;1.00;;;;;;5064085;28;20037;-68
2022/04/02 13:06:27;;;;;;;0.35;0.35;;;3.70;1.00;;;;;;5076918;28;20032;-68
2022/04/02 13:09:15;;;;;;;0.08;0.08;;;3.40;1.00;;;;;;5076795;28;20067;-68
2022/04/02 13:11:55;;;;;;;0.08;0.08;;;3.30;1.00;;;;;;5076934;28;20049;-69
2022/04/02 13:14:38;;;;;;;0.08;0.08;;;3.10;1.00;;;;;;5068485;28;20036;-68
2022/04/02 13:17:08;;;;;;;0.30;0.30;;;3.10;1.00;;;;;;5064671;28;20434;-68
2022/04/02 13:22:50;;;;;;;2.95;0.77;;;3.10;1.00;;;;;;5062712;28;20271;-70
2022/04/02 13:25:20;;;;;;;0.17;0.17;;;3.20;1.00;;;;;;5076130;28;20052;-69
2022/04/02 13:28:16;;;;;;;0.32;0.30;;;3.30;1.00;;;;;;5076276;28;20094;-69
2022/04/02 13:30:57;;;;;;;0.30;0.30;;;3.60;1.00;;;;;;5075904;28;20037;-76
2022/04/02 13:34:16;;;;;;;0.28;0.28;;;3.60;1.00;;;;;;5074516;28;20036;-70